sensor_id;sensor_type;location;lat;lon;timestamp;P1;durP1;ratioP1;P2;durP2;ratioP2
47335;SDS011;33068;51.990;5.926;2023-06-14T00:01:13;5.03;;;2.10;;
47335;SDS011;33068;51.990;5.926;2023-06-14T00:03:41;4.90;;;1.73;;
47335;SDS011;33068;51.990;5.926;2023-06-14T00:06:09;3.33;;;1.98;;
47335;SDS011;33068;51.990;5.926;2023-06-14T00:08:36;4.95;;;1.83;;
47335;SDS011;33068;51.990;5.926;2023-06-14T00:11:03;5.60;;;2.13;;
47335;SDS011;33068;51.990;5.926;2023-06-14T00:13:30;4.72;;;1.75;;
47335;SDS011;33068;51.990;5.926;2023-06-14T00:15:58;3.45;;;1.73;;
47335;SDS011;33068;51.990;5.926;2023-06-14T00:18:25;4.78;;;1.88;;
47335;SDS011;33068;51.990;5.926;2023-06-14T00:20:54;4.55;;;1.95;;
47335;SDS011;33068;51.990;5.926;2023-06-14T00:23:23;6.20;;;1.70;;
47335;SDS011;33068;51.990;5.926;2023-06-14T00:25:50;4.85;;;1.90;;
47335;SDS011;33068;51.990;5.926;2023-06-14T00:28:17;3.35;;;1.63;;
47335;SDS011;33068;51.990;5.926;2023-06-14T00:30:45;2.20;;;1.80;;
47335;SDS011;33068;51.990;5.926;2023-06-14T00:33:12;7.80;;;1.67;;
47335;SDS011;33068;51.990;5.926;2023-06-14T00:35:42;3.20;;;1.40;;
47335;SDS011;33068;51.990;5.926;2023-06-14T00:38:09;6.20;;;1.77;;
47335;SDS011;33068;51.990;5.926;2023-06-14T00:40:40;3.42;;;1.60;;
47335;SDS011;33068;51.990;5.926;2023-06-14T00:43:07;6.85;;;1.77;;
47335;SDS011;33068;51.990;5.926;2023-06-14T00:45:35;4.57;;;1.70;;
47335;SDS011;33068;51.990;5.926;2023-06-14T00:48:02;4.88;;;1.48;;
47335;SDS011;33068;51.990;5.926;2023-06-14T00:50:31;5.28;;;1.98;;
47335;SDS011;33068;51.990;5.926;2023-06-14T00:52:59;5.50;;;1.83;;
47335;SDS011;33068;51.990;5.926;2023-06-14T00:55:27;3.90;;;2.33;;
47335;SDS011;33068;51.990;5.926;2023-06-14T00:57:55;5.07;;;2.00;;
47335;SDS011;33068;51.990;5.926;2023-06-14T01:00:23;6.85;;;2.20;;
47335;SDS011;33068;51.990;5.926;2023-06-14T01:02:54;6.82;;;1.70;;
47335;SDS011;33068;51.990;5.926;2023-06-14T01:05:22;3.88;;;1.52;;
47335;SDS011;33068;51.990;5.926;2023-06-14T01:07:55;6.93;;;2.10;;
47335;SDS011;33068;51.990;5.926;2023-06-14T01:10:35;4.75;;;1.33;;
47335;SDS011;33068;51.990;5.926;2023-06-14T01:13:12;5.70;;;1.77;;
47335;SDS011;33068;51.990;5.926;2023-06-14T01:15:46;5.07;;;1.77;;
47335;SDS011;33068;51.990;5.926;2023-06-14T01:18:14;7.70;;;1.60;;
47335;SDS011;33068;51.990;5.926;2023-06-14T01:20:43;5.07;;;1.98;;
47335;SDS011;33068;51.990;5.926;2023-06-14T01:23:13;3.65;;;1.70;;
47335;SDS011;33068;51.990;5.926;2023-06-14T01:25:41;4.60;;;1.63;;
47335;SDS011;33068;51.990;5.926;2023-06-14T01:28:10;6.38;;;1.30;;
47335;SDS011;33068;51.990;5.926;2023-06-14T01:30:39;6.32;;;1.80;;
47335;SDS011;33068;51.990;5.926;2023-06-14T01:33:10;5.68;;;1.58;;
47335;SDS011;33068;51.990;5.926;2023-06-14T01:35:40;2.35;;;1.88;;
47335;SDS011;33068;51.990;5.926;2023-06-14T01:38:08;4.82;;;1.60;;
47335;SDS011;33068;51.990;5.926;2023-06-14T01:40:37;6.50;;;1.75;;
47335;SDS011;33068;51.990;5.926;2023-06-14T01:43:05;3.67;;;1.70;;
47335;SDS011;33068;51.990;5.926;2023-06-14T01:45:33;5.82;;;1.42;;
47335;SDS011;33068;51.990;5.926;2023-06-14T01:48:02;3.85;;;1.55;;
47335;SDS011;33068;51.990;5.926;2023-06-14T01:50:30;10.73;;;1.98;;
47335;SDS011;33068;51.990;5.926;2023-06-14T01:52:58;5.40;;;1.48;;
47335;SDS011;33068;51.990;5.926;2023-06-14T01:55:25;2.55;;;1.65;;
47335;SDS011;33068;51.990;5.926;2023-06-14T01:57:54;4.20;;;1.92;;
47335;SDS011;33068;51.990;5.926;2023-06-14T02:00:21;4.90;;;1.80;;
47335;SDS011;33068;51.990;5.926;2023-06-14T02:02:51;6.60;;;1.70;;
47335;SDS011;33068;51.990;5.926;2023-06-14T02:05:18;3.08;;;1.88;;
47335;SDS011;33068;51.990;5.926;2023-06-14T02:07:47;7.20;;;2.05;;
47335;SDS011;33068;51.990;5.926;2023-06-14T02:10:17;4.28;;;1.58;;
47335;SDS011;33068;51.990;5.926;2023-06-14T02:12:44;3.75;;;1.90;;
47335;SDS011;33068;51.990;5.926;2023-06-14T02:15:12;6.70;;;1.48;;
47335;SDS011;33068;51.990;5.926;2023-06-14T02:17:43;5.90;;;1.25;;
47335;SDS011;33068;51.990;5.926;2023-06-14T02:20:12;4.13;;;1.40;;
47335;SDS011;33068;51.990;5.926;2023-06-14T02:22:39;6.75;;;1.50;;
47335;SDS011;33068;51.990;5.926;2023-06-14T02:25:07;2.35;;;1.48;;
47335;SDS011;33068;51.990;5.926;2023-06-14T02:27:35;8.70;;;2.90;;
47335;SDS011;33068;51.990;5.926;2023-06-14T02:30:03;5.03;;;1.95;;
47335;SDS011;33068;51.990;5.926;2023-06-14T02:32:33;4.13;;;2.05;;
47335;SDS011;33068;51.990;5.926;2023-06-14T02:35:00;6.57;;;1.55;;
47335;SDS011;33068;51.990;5.926;2023-06-14T02:37:28;3.65;;;1.77;;
47335;SDS011;33068;51.990;5.926;2023-06-14T02:39:55;3.95;;;1.50;;
47335;SDS011;33068;51.990;5.926;2023-06-14T02:42:22;4.85;;;1.40;;
47335;SDS011;33068;51.990;5.926;2023-06-14T02:44:49;7.80;;;1.55;;
47335;SDS011;33068;51.990;5.926;2023-06-14T02:47:17;5.15;;;1.50;;
47335;SDS011;33068;51.990;5.926;2023-06-14T02:49:45;6.30;;;2.05;;
47335;SDS011;33068;51.990;5.926;2023-06-14T02:52:14;3.75;;;1.35;;
47335;SDS011;33068;51.990;5.926;2023-06-14T02:54:41;7.22;;;1.55;;
47335;SDS011;33068;51.990;5.926;2023-06-14T02:57:09;3.63;;;2.03;;
47335;SDS011;33068;51.990;5.926;2023-06-14T02:59:37;4.82;;;1.70;;
47335;SDS011;33068;51.990;5.926;2023-06-14T03:02:05;4.68;;;1.90;;
47335;SDS011;33068;51.990;5.926;2023-06-14T03:04:33;4.68;;;1.80;;
47335;SDS011;33068;51.990;5.926;2023-06-14T03:07:06;4.07;;;1.95;;
47335;SDS011;33068;51.990;5.926;2023-06-14T03:09:35;3.88;;;1.40;;
47335;SDS011;33068;51.990;5.926;2023-06-14T03:12:03;5.30;;;1.48;;
47335;SDS011;33068;51.990;5.926;2023-06-14T03:14:32;7.03;;;1.67;;
47335;SDS011;33068;51.990;5.926;2023-06-14T03:17:00;1.92;;;1.40;;
47335;SDS011;33068;51.990;5.926;2023-06-14T03:19:29;5.43;;;2.03;;
47335;SDS011;33068;51.990;5.926;2023-06-14T03:21:56;3.53;;;1.45;;
47335;SDS011;33068;51.990;5.926;2023-06-14T03:24:27;2.58;;;1.67;;
47335;SDS011;33068;51.990;5.926;2023-06-14T03:26:56;7.10;;;1.63;;
47335;SDS011;33068;51.990;5.926;2023-06-14T03:29:25;4.80;;;1.85;;
47335;SDS011;33068;51.990;5.926;2023-06-14T03:31:56;2.88;;;1.75;;
47335;SDS011;33068;51.990;5.926;2023-06-14T03:34:25;4.25;;;1.90;;
47335;SDS011;33068;51.990;5.926;2023-06-14T03:36:53;4.90;;;1.35;;
47335;SDS011;33068;51.990;5.926;2023-06-14T03:39:21;4.85;;;1.48;;
47335;SDS011;33068;51.990;5.926;2023-06-14T03:41:50;3.90;;;1.95;;
47335;SDS011;33068;51.990;5.926;2023-06-14T03:44:17;5.50;;;1.40;;
47335;SDS011;33068;51.990;5.926;2023-06-14T03:46:45;5.55;;;1.50;;
47335;SDS011;33068;51.990;5.926;2023-06-14T03:49:13;4.03;;;1.42;;
47335;SDS011;33068;51.990;5.926;2023-06-14T03:51:43;6.20;;;1.67;;
47335;SDS011;33068;51.990;5.926;2023-06-14T03:54:11;1.65;;;1.23;;
47335;SDS011;33068;51.990;5.926;2023-06-14T03:56:38;3.80;;;1.33;;
47335;SDS011;33068;51.990;5.926;2023-06-14T03:59:10;5.35;;;1.67;;
47335;SDS011;33068;51.990;5.926;2023-06-14T04:01:37;5.65;;;2.13;;
47335;SDS011;33068;51.990;5.926;2023-06-14T04:04:13;4.40;;;1.40;;
47335;SDS011;33068;51.990;5.926;2023-06-14T04:06:42;3.00;;;1.20;;
47335;SDS011;33068;51.990;5.926;2023-06-14T04:09:10;3.97;;;1.55;;
47335;SDS011;33068;51.990;5.926;2023-06-14T04:11:37;2.50;;;1.40;;
47335;SDS011;33068;51.990;5.926;2023-06-14T04:14:05;3.72;;;2.10;;
47335;SDS011;33068;51.990;5.926;2023-06-14T04:16:34;4.10;;;1.90;;
47335;SDS011;33068;51.990;5.926;2023-06-14T04:19:01;6.60;;;1.55;;
47335;SDS011;33068;51.990;5.926;2023-06-14T04:21:28;5.65;;;1.25;;
47335;SDS011;33068;51.990;5.926;2023-06-14T04:23:57;3.55;;;1.60;;
47335;SDS011;33068;51.990;5.926;2023-06-14T04:26:28;3.15;;;1.42;;
47335;SDS011;33068;51.990;5.926;2023-06-14T04:28:58;2.92;;;1.60;;
47335;SDS011;33068;51.990;5.926;2023-06-14T04:31:29;3.35;;;1.52;;
47335;SDS011;33068;51.990;5.926;2023-06-14T04:34:01;3.17;;;1.60;;
47335;SDS011;33068;51.990;5.926;2023-06-14T04:36:31;2.90;;;1.52;;
47335;SDS011;33068;51.990;5.926;2023-06-14T04:39:00;4.10;;;1.45;;
47335;SDS011;33068;51.990;5.926;2023-06-14T04:41:30;3.95;;;1.30;;
47335;SDS011;33068;51.990;5.926;2023-06-14T04:43:59;3.63;;;1.48;;
47335;SDS011;33068;51.990;5.926;2023-06-14T04:46:30;5.57;;;1.80;;
47335;SDS011;33068;51.990;5.926;2023-06-14T04:48:58;6.40;;;1.67;;
47335;SDS011;33068;51.990;5.926;2023-06-14T04:51:29;4.43;;;1.58;;
47335;SDS011;33068;51.990;5.926;2023-06-14T04:53:59;3.22;;;1.25;;
47335;SDS011;33068;51.990;5.926;2023-06-14T04:56:27;2.20;;;1.40;;
47335;SDS011;33068;51.990;5.926;2023-06-14T04:58:55;5.75;;;1.48;;
47335;SDS011;33068;51.990;5.926;2023-06-14T05:01:22;5.72;;;1.98;;
47335;SDS011;33068;51.990;5.926;2023-06-14T05:03:50;4.55;;;1.60;;
47335;SDS011;33068;51.990;5.926;2023-06-14T05:06:17;2.00;;;1.35;;
47335;SDS011;33068;51.990;5.926;2023-06-14T05:08:46;2.38;;;1.88;;
47335;SDS011;33068;51.990;5.926;2023-06-14T05:11:13;4.00;;;2.00;;
47335;SDS011;33068;51.990;5.926;2023-06-14T05:13:42;7.32;;;1.85;;
47335;SDS011;33068;51.990;5.926;2023-06-14T05:16:11;7.35;;;1.98;;
47335;SDS011;33068;51.990;5.926;2023-06-14T05:18:40;5.47;;;1.65;;
47335;SDS011;33068;51.990;5.926;2023-06-14T05:21:08;4.85;;;1.98;;
47335;SDS011;33068;51.990;5.926;2023-06-14T05:23:36;3.90;;;1.50;;
47335;SDS011;33068;51.990;5.926;2023-06-14T05:26:05;2.97;;;1.50;;
47335;SDS011;33068;51.990;5.926;2023-06-14T05:28:32;2.63;;;1.15;;
47335;SDS011;33068;51.990;5.926;2023-06-14T05:30:59;4.07;;;1.48;;
47335;SDS011;33068;51.990;5.926;2023-06-14T05:33:26;5.20;;;1.58;;
47335;SDS011;33068;51.990;5.926;2023-06-14T05:35:53;7.75;;;1.27;;
47335;SDS011;33068;51.990;5.926;2023-06-14T05:38:20;2.63;;;1.70;;
47335;SDS011;33068;51.990;5.926;2023-06-14T05:40:48;8.45;;;1.60;;
47335;SDS011;33068;51.990;5.926;2023-06-14T05:43:16;2.58;;;1.48;;
47335;SDS011;33068;51.990;5.926;2023-06-14T05:45:43;3.97;;;1.58;;
47335;SDS011;33068;51.990;5.926;2023-06-14T05:48:10;2.67;;;1.60;;
47335;SDS011;33068;51.990;5.926;2023-06-14T05:50:37;8.73;;;1.83;;
47335;SDS011;33068;51.990;5.926;2023-06-14T05:53:04;3.05;;;1.60;;
47335;SDS011;33068;51.990;5.926;2023-06-14T05:55:31;2.38;;;1.40;;
47335;SDS011;33068;51.990;5.926;2023-06-14T05:57:58;5.72;;;1.70;;
47335;SDS011;33068;51.990;5.926;2023-06-14T06:00:27;10.68;;;1.70;;
47335;SDS011;33068;51.990;5.926;2023-06-14T06:02:54;8.63;;;1.52;;
47335;SDS011;33068;51.990;5.926;2023-06-14T06:05:23;3.47;;;1.27;;
47335;SDS011;33068;51.990;5.926;2023-06-14T06:07:50;3.47;;;1.60;;
47335;SDS011;33068;51.990;5.926;2023-06-14T06:10:17;3.75;;;1.50;;
47335;SDS011;33068;51.990;5.926;2023-06-14T06:12:44;2.50;;;1.60;;
47335;SDS011;33068;51.990;5.926;2023-06-14T06:15:12;5.30;;;1.70;;
47335;SDS011;33068;51.990;5.926;2023-06-14T06:17:41;3.95;;;1.60;;
47335;SDS011;33068;51.990;5.926;2023-06-14T06:20:08;6.80;;;1.77;;
47335;SDS011;33068;51.990;5.926;2023-06-14T06:22:36;7.75;;;1.63;;
47335;SDS011;33068;51.990;5.926;2023-06-14T06:25:04;4.03;;;1.95;;
47335;SDS011;33068;51.990;5.926;2023-06-14T06:27:32;4.10;;;1.63;;
47335;SDS011;33068;51.990;5.926;2023-06-14T06:30:01;2.60;;;1.75;;
47335;SDS011;33068;51.990;5.926;2023-06-14T06:32:28;2.72;;;1.42;;
47335;SDS011;33068;51.990;5.926;2023-06-14T06:34:56;4.15;;;1.63;;
47335;SDS011;33068;51.990;5.926;2023-06-14T06:37:25;2.65;;;1.38;;
47335;SDS011;33068;51.990;5.926;2023-06-14T06:39:52;7.70;;;1.75;;
47335;SDS011;33068;51.990;5.926;2023-06-14T06:42:19;2.65;;;1.85;;
47335;SDS011;33068;51.990;5.926;2023-06-14T06:44:49;2.67;;;1.40;;
47335;SDS011;33068;51.990;5.926;2023-06-14T06:47:16;2.90;;;1.30;;
47335;SDS011;33068;51.990;5.926;2023-06-14T06:49:43;4.50;;;1.10;;
47335;SDS011;33068;51.990;5.926;2023-06-14T06:52:11;2.15;;;1.38;;
47335;SDS011;33068;51.990;5.926;2023-06-14T06:54:39;6.78;;;1.80;;
47335;SDS011;33068;51.990;5.926;2023-06-14T06:57:06;3.13;;;1.52;;
47335;SDS011;33068;51.990;5.926;2023-06-14T06:59:33;3.05;;;1.40;;
47335;SDS011;33068;51.990;5.926;2023-06-14T07:02:00;3.05;;;1.58;;
47335;SDS011;33068;51.990;5.926;2023-06-14T07:04:27;6.78;;;1.10;;
47335;SDS011;33068;51.990;5.926;2023-06-14T07:06:54;3.15;;;0.90;;
47335;SDS011;33068;51.990;5.926;2023-06-14T07:09:23;3.53;;;1.40;;
47335;SDS011;33068;51.990;5.926;2023-06-14T07:11:51;7.20;;;1.20;;
47335;SDS011;33068;51.990;5.926;2023-06-14T07:14:18;3.38;;;1.00;;
47335;SDS011;33068;51.990;5.926;2023-06-14T07:16:48;6.03;;;1.83;;
47335;SDS011;33068;51.990;5.926;2023-06-14T07:19:15;2.95;;;1.10;;
47335;SDS011;33068;51.990;5.926;2023-06-14T07:21:42;2.85;;;1.00;;
47335;SDS011;33068;51.990;5.926;2023-06-14T07:24:09;1.50;;;1.15;;
47335;SDS011;33068;51.990;5.926;2023-06-14T07:26:38;5.72;;;1.60;;
47335;SDS011;33068;51.990;5.926;2023-06-14T07:29:05;3.00;;;0.85;;
47335;SDS011;33068;51.990;5.926;2023-06-14T07:31:32;1.75;;;0.85;;
47335;SDS011;33068;51.990;5.926;2023-06-14T07:33:59;2.10;;;0.90;;
47335;SDS011;33068;51.990;5.926;2023-06-14T07:36:26;3.42;;;0.70;;
47335;SDS011;33068;51.990;5.926;2023-06-14T07:38:53;2.75;;;0.73;;
47335;SDS011;33068;51.990;5.926;2023-06-14T07:41:21;4.30;;;0.70;;
47335;SDS011;33068;51.990;5.926;2023-06-14T07:43:49;1.70;;;0.93;;
47335;SDS011;33068;51.990;5.926;2023-06-14T07:46:17;2.80;;;0.80;;
47335;SDS011;33068;51.990;5.926;2023-06-14T07:48:44;2.92;;;0.68;;
47335;SDS011;33068;51.990;5.926;2023-06-14T07:51:11;3.85;;;1.30;;
47335;SDS011;33068;51.990;5.926;2023-06-14T07:53:38;1.20;;;0.77;;
47335;SDS011;33068;51.990;5.926;2023-06-14T07:56:07;0.90;;;0.60;;
47335;SDS011;33068;51.990;5.926;2023-06-14T07:58:34;4.63;;;0.70;;
47335;SDS011;33068;51.990;5.926;2023-06-14T08:01:02;1.85;;;0.68;;
47335;SDS011;33068;51.990;5.926;2023-06-14T08:03:31;1.25;;;0.70;;
47335;SDS011;33068;51.990;5.926;2023-06-14T08:05:58;3.90;;;0.57;;
47335;SDS011;33068;51.990;5.926;2023-06-14T08:08:25;7.80;;;0.82;;
47335;SDS011;33068;51.990;5.926;2023-06-14T08:10:53;2.35;;;0.60;;
47335;SDS011;33068;51.990;5.926;2023-06-14T08:13:20;4.20;;;0.75;;
47335;SDS011;33068;51.990;5.926;2023-06-14T08:15:47;2.97;;;0.68;;
47335;SDS011;33068;51.990;5.926;2023-06-14T08:18:15;1.90;;;0.77;;
47335;SDS011;33068;51.990;5.926;2023-06-14T08:20:42;0.52;;;0.40;;
47335;SDS011;33068;51.990;5.926;2023-06-14T08:23:10;2.30;;;1.08;;
47335;SDS011;33068;51.990;5.926;2023-06-14T08:25:37;1.38;;;0.60;;
47335;SDS011;33068;51.990;5.926;2023-06-14T08:28:04;1.63;;;0.82;;
47335;SDS011;33068;51.990;5.926;2023-06-14T08:30:31;3.65;;;0.70;;
47335;SDS011;33068;51.990;5.926;2023-06-14T08:32:58;0.70;;;0.50;;
47335;SDS011;33068;51.990;5.926;2023-06-14T08:35:27;3.00;;;0.70;;
47335;SDS011;33068;51.990;5.926;2023-06-14T08:37:55;0.65;;;0.60;;
47335;SDS011;33068;51.990;5.926;2023-06-14T08:40:22;1.67;;;0.77;;
47335;SDS011;33068;51.990;5.926;2023-06-14T08:42:50;1.10;;;0.73;;
47335;SDS011;33068;51.990;5.926;2023-06-14T08:45:19;1.20;;;0.52;;
47335;SDS011;33068;51.990;5.926;2023-06-14T08:47:46;3.45;;;0.77;;
47335;SDS011;33068;51.990;5.926;2023-06-14T08:50:19;4.90;;;0.85;;
47335;SDS011;33068;51.990;5.926;2023-06-14T08:52:50;2.47;;;0.60;;
47335;SDS011;33068;51.990;5.926;2023-06-14T08:55:22;0.70;;;0.50;;
47335;SDS011;33068;51.990;5.926;2023-06-14T08:57:54;2.15;;;0.98;;
47335;SDS011;33068;51.990;5.926;2023-06-14T09:00:23;4.75;;;0.82;;
47335;SDS011;33068;51.990;5.926;2023-06-14T09:02:50;2.45;;;0.90;;
47335;SDS011;33068;51.990;5.926;2023-06-14T09:05:23;0.75;;;0.60;;
47335;SDS011;33068;51.990;5.926;2023-06-14T09:07:52;5.05;;;0.77;;
47335;SDS011;33068;51.990;5.926;2023-06-14T09:10:20;1.88;;;0.70;;
47335;SDS011;33068;51.990;5.926;2023-06-14T09:12:47;3.42;;;0.50;;
47335;SDS011;33068;51.990;5.926;2023-06-14T09:15:14;1.35;;;0.55;;
47335;SDS011;33068;51.990;5.926;2023-06-14T09:17:42;1.35;;;0.52;;
47335;SDS011;33068;51.990;5.926;2023-06-14T09:20:09;3.85;;;0.70;;
47335;SDS011;33068;51.990;5.926;2023-06-14T09:22:38;1.98;;;0.47;;
47335;SDS011;33068;51.990;5.926;2023-06-14T09:25:08;2.83;;;0.50;;
47335;SDS011;33068;51.990;5.926;2023-06-14T09:27:37;1.38;;;0.60;;
47335;SDS011;33068;51.990;5.926;2023-06-14T09:30:06;0.70;;;0.40;;
47335;SDS011;33068;51.990;5.926;2023-06-14T09:32:36;0.95;;;0.55;;
47335;SDS011;33068;51.990;5.926;2023-06-14T09:35:04;1.70;;;0.70;;
47335;SDS011;33068;51.990;5.926;2023-06-14T09:37:33;0.73;;;0.57;;
47335;SDS011;33068;51.990;5.926;2023-06-14T09:40:00;3.00;;;0.65;;
47335;SDS011;33068;51.990;5.926;2023-06-14T09:42:31;0.73;;;0.50;;
47335;SDS011;33068;51.990;5.926;2023-06-14T09:45:02;1.13;;;0.50;;
47335;SDS011;33068;51.990;5.926;2023-06-14T09:47:30;0.82;;;0.50;;
47335;SDS011;33068;51.990;5.926;2023-06-14T09:49:57;1.13;;;0.55;;
47335;SDS011;33068;51.990;5.926;2023-06-14T09:52:25;3.55;;;0.70;;
47335;SDS011;33068;51.990;5.926;2023-06-14T09:54:55;0.50;;;0.50;;
47335;SDS011;33068;51.990;5.926;2023-06-14T09:57:25;1.85;;;0.60;;
47335;SDS011;33068;51.990;5.926;2023-06-14T09:59:58;1.48;;;0.68;;
47335;SDS011;33068;51.990;5.926;2023-06-14T10:02:38;3.15;;;0.50;;
47335;SDS011;33068;51.990;5.926;2023-06-14T10:05:08;2.15;;;0.40;;
47335;SDS011;33068;51.990;5.926;2023-06-14T10:07:38;3.95;;;0.50;;
47335;SDS011;33068;51.990;5.926;2023-06-14T10:10:08;0.52;;;0.50;;
47335;SDS011;33068;51.990;5.926;2023-06-14T10:12:36;3.03;;;0.43;;
47335;SDS011;33068;51.990;5.926;2023-06-14T10:15:05;1.27;;;0.35;;
47335;SDS011;33068;51.990;5.926;2023-06-14T10:17:37;1.58;;;0.60;;
47335;SDS011;33068;51.990;5.926;2023-06-14T10:20:14;2.75;;;0.73;;
47335;SDS011;33068;51.990;5.926;2023-06-14T10:22:49;0.82;;;0.40;;
47335;SDS011;33068;51.990;5.926;2023-06-14T10:25:26;1.20;;;0.60;;
47335;SDS011;33068;51.990;5.926;2023-06-14T10:28:14;1.48;;;0.50;;
47335;SDS011;33068;51.990;5.926;2023-06-14T10:31:03;1.15;;;0.55;;
47335;SDS011;33068;51.990;5.926;2023-06-14T10:33:31;0.95;;;0.60;;
47335;SDS011;33068;51.990;5.926;2023-06-14T10:36:09;1.48;;;0.73;;
47335;SDS011;33068;51.990;5.926;2023-06-14T10:38:56;4.18;;;0.60;;
47335;SDS011;33068;51.990;5.926;2023-06-14T10:41:24;0.65;;;0.40;;
47335;SDS011;33068;51.990;5.926;2023-06-14T10:43:53;0.55;;;0.40;;
47335;SDS011;33068;51.990;5.926;2023-06-14T10:46:53;2.88;;;0.43;;
47335;SDS011;33068;51.990;5.926;2023-06-14T10:49:37;0.60;;;0.50;;
47335;SDS011;33068;51.990;5.926;2023-06-14T10:52:09;0.65;;;0.50;;
47335;SDS011;33068;51.990;5.926;2023-06-14T10:54:59;0.93;;;0.60;;
47335;SDS011;33068;51.990;5.926;2023-06-14T10:57:28;0.52;;;0.52;;
47335;SDS011;33068;51.990;5.926;2023-06-14T10:59:57;1.65;;;0.57;;
47335;SDS011;33068;51.990;5.926;2023-06-14T11:02:35;2.50;;;0.40;;
47335;SDS011;33068;51.990;5.926;2023-06-14T11:05:19;4.13;;;0.52;;
47335;SDS011;33068;51.990;5.926;2023-06-14T11:07:55;2.78;;;0.80;;
47335;SDS011;33068;51.990;5.926;2023-06-14T11:10:37;1.85;;;0.60;;
47335;SDS011;33068;51.990;5.926;2023-06-14T11:13:05;1.63;;;0.70;;
47335;SDS011;33068;51.990;5.926;2023-06-14T11:15:32;1.50;;;0.50;;
47335;SDS011;33068;51.990;5.926;2023-06-14T11:18:03;2.47;;;0.60;;
47335;SDS011;33068;51.990;5.926;2023-06-14T11:20:32;1.95;;;0.57;;
47335;SDS011;33068;51.990;5.926;2023-06-14T11:23:00;6.55;;;0.80;;
47335;SDS011;33068;51.990;5.926;2023-06-14T11:25:28;2.58;;;0.60;;
47335;SDS011;33068;51.990;5.926;2023-06-14T11:27:55;2.22;;;0.47;;
47335;SDS011;33068;51.990;5.926;2023-06-14T11:30:24;3.85;;;0.60;;
47335;SDS011;33068;51.990;5.926;2023-06-14T11:32:52;2.20;;;0.50;;
47335;SDS011;33068;51.990;5.926;2023-06-14T11:35:22;1.75;;;0.68;;
47335;SDS011;33068;51.990;5.926;2023-06-14T11:37:52;2.38;;;0.57;;
47335;SDS011;33068;51.990;5.926;2023-06-14T11:40:23;1.48;;;0.60;;
47335;SDS011;33068;51.990;5.926;2023-06-14T11:42:53;2.63;;;0.60;;
47335;SDS011;33068;51.990;5.926;2023-06-14T11:45:25;3.60;;;0.68;;
47335;SDS011;33068;51.990;5.926;2023-06-14T11:47:53;2.35;;;0.57;;
47335;SDS011;33068;51.990;5.926;2023-06-14T11:50:24;0.82;;;0.60;;
47335;SDS011;33068;51.990;5.926;2023-06-14T11:52:52;1.10;;;0.50;;
47335;SDS011;33068;51.990;5.926;2023-06-14T11:55:24;2.35;;;0.50;;
47335;SDS011;33068;51.990;5.926;2023-06-14T11:57:53;1.88;;;0.50;;
47335;SDS011;33068;51.990;5.926;2023-06-14T12:00:23;1.13;;;0.52;;
47335;SDS011;33068;51.990;5.926;2023-06-14T12:02:52;2.60;;;0.50;;
47335;SDS011;33068;51.990;5.926;2023-06-14T12:05:21;0.85;;;0.40;;
47335;SDS011;33068;51.990;5.926;2023-06-14T12:07:50;1.85;;;0.68;;
47335;SDS011;33068;51.990;5.926;2023-06-14T12:10:18;1.00;;;0.45;;
47335;SDS011;33068;51.990;5.926;2023-06-14T12:12:46;1.75;;;0.60;;
47335;SDS011;33068;51.990;5.926;2023-06-14T12:15:13;0.40;;;0.40;;
47335;SDS011;33068;51.990;5.926;2023-06-14T12:17:41;0.65;;;0.40;;
47335;SDS011;33068;51.990;5.926;2023-06-14T12:20:09;1.25;;;0.40;;
47335;SDS011;33068;51.990;5.926;2023-06-14T12:22:39;2.30;;;0.43;;
47335;SDS011;33068;51.990;5.926;2023-06-14T12:25:24;0.82;;;0.50;;
47335;SDS011;33068;51.990;5.926;2023-06-14T12:27:54;2.28;;;0.38;;
47335;SDS011;33068;51.990;5.926;2023-06-14T12:30:21;0.40;;;0.40;;
47335;SDS011;33068;51.990;5.926;2023-06-14T12:32:48;0.98;;;0.52;;
47335;SDS011;33068;51.990;5.926;2023-06-14T12:35:16;0.50;;;0.50;;
47335;SDS011;33068;51.990;5.926;2023-06-14T12:37:44;4.28;;;0.65;;
47335;SDS011;33068;51.990;5.926;2023-06-14T12:40:12;0.95;;;0.45;;
47335;SDS011;33068;51.990;5.926;2023-06-14T12:42:41;0.88;;;0.50;;
47335;SDS011;33068;51.990;5.926;2023-06-14T12:45:08;0.50;;;0.40;;
47335;SDS011;33068;51.990;5.926;2023-06-14T12:47:36;1.58;;;0.40;;
47335;SDS011;33068;51.990;5.926;2023-06-14T12:50:03;4.43;;;0.80;;
47335;SDS011;33068;51.990;5.926;2023-06-14T12:52:31;5.28;;;0.50;;
47335;SDS011;33068;51.990;5.926;2023-06-14T12:55:01;1.70;;;0.50;;
47335;SDS011;33068;51.990;5.926;2023-06-14T12:57:29;3.53;;;0.50;;
47335;SDS011;33068;51.990;5.926;2023-06-14T12:59:59;1.95;;;0.50;;
47335;SDS011;33068;51.990;5.926;2023-06-14T13:02:27;1.80;;;0.50;;
47335;SDS011;33068;51.990;5.926;2023-06-14T13:04:54;0.70;;;0.40;;
47335;SDS011;33068;51.990;5.926;2023-06-14T13:07:23;0.75;;;0.32;;
47335;SDS011;33068;51.990;5.926;2023-06-14T13:09:50;0.95;;;0.40;;
47335;SDS011;33068;51.990;5.926;2023-06-14T13:12:17;2.92;;;0.35;;
47335;SDS011;33068;51.990;5.926;2023-06-14T13:14:45;2.13;;;0.40;;
47335;SDS011;33068;51.990;5.926;2023-06-14T13:17:13;0.95;;;0.60;;
47335;SDS011;33068;51.990;5.926;2023-06-14T13:19:40;3.40;;;0.40;;
47335;SDS011;33068;51.990;5.926;2023-06-14T13:22:08;3.25;;;0.30;;
47335;SDS011;33068;51.990;5.926;2023-06-14T13:24:35;0.82;;;0.43;;
47335;SDS011;33068;51.990;5.926;2023-06-14T13:27:03;2.47;;;0.30;;
47335;SDS011;33068;51.990;5.926;2023-06-14T13:29:30;2.35;;;0.30;;
47335;SDS011;33068;51.990;5.926;2023-06-14T13:31:58;0.30;;;0.20;;
47335;SDS011;33068;51.990;5.926;2023-06-14T13:34:27;2.65;;;0.40;;
47335;SDS011;33068;51.990;5.926;2023-06-14T13:36:54;2.35;;;0.63;;
47335;SDS011;33068;51.990;5.926;2023-06-14T13:39:23;1.85;;;0.30;;
47335;SDS011;33068;51.990;5.926;2023-06-14T13:41:51;0.50;;;0.40;;
47335;SDS011;33068;51.990;5.926;2023-06-14T13:44:18;4.20;;;0.50;;
47335;SDS011;33068;51.990;5.926;2023-06-14T13:46:46;1.13;;;0.40;;
47335;SDS011;33068;51.990;5.926;2023-06-14T13:49:13;3.30;;;0.40;;
47335;SDS011;33068;51.990;5.926;2023-06-14T13:51:41;0.75;;;0.35;;
47335;SDS011;33068;51.990;5.926;2023-06-14T13:54:11;0.50;;;0.30;;
47335;SDS011;33068;51.990;5.926;2023-06-14T13:56:39;0.32;;;0.30;;
47335;SDS011;33068;51.990;5.926;2023-06-14T13:59:06;2.10;;;0.38;;
47335;SDS011;33068;51.990;5.926;2023-06-14T14:01:34;2.75;;;0.60;;
47335;SDS011;33068;51.990;5.926;2023-06-14T14:04:01;2.92;;;0.35;;
47335;SDS011;33068;51.990;5.926;2023-06-14T14:06:28;1.02;;;0.35;;
47335;SDS011;33068;51.990;5.926;2023-06-14T14:08:57;7.90;;;0.50;;
47335;SDS011;33068;51.990;5.926;2023-06-14T14:11:24;1.75;;;0.50;;
47335;SDS011;33068;51.990;5.926;2023-06-14T14:13:51;2.13;;;0.40;;
47335;SDS011;33068;51.990;5.926;2023-06-14T14:16:18;2.78;;;1.05;;
47335;SDS011;33068;51.990;5.926;2023-06-14T14:18:45;3.35;;;0.35;;
47335;SDS011;33068;51.990;5.926;2023-06-14T14:21:12;1.20;;;0.30;;
47335;SDS011;33068;51.990;5.926;2023-06-14T14:23:39;0.77;;;0.30;;
47335;SDS011;33068;51.990;5.926;2023-06-14T14:26:08;1.25;;;0.40;;
47335;SDS011;33068;51.990;5.926;2023-06-14T14:28:35;0.90;;;0.30;;
47335;SDS011;33068;51.990;5.926;2023-06-14T14:31:02;3.83;;;0.30;;
47335;SDS011;33068;51.990;5.926;2023-06-14T14:33:29;2.10;;;0.35;;
47335;SDS011;33068;51.990;5.926;2023-06-14T14:35:56;1.80;;;0.40;;
47335;SDS011;33068;51.990;5.926;2023-06-14T14:38:24;2.55;;;0.40;;
47335;SDS011;33068;51.990;5.926;2023-06-14T14:40:51;0.82;;;0.40;;
47335;SDS011;33068;51.990;5.926;2023-06-14T14:43:20;1.92;;;0.30;;
47335;SDS011;33068;51.990;5.926;2023-06-14T14:45:47;0.55;;;0.40;;
47335;SDS011;33068;51.990;5.926;2023-06-14T14:48:14;2.70;;;0.50;;
47335;SDS011;33068;51.990;5.926;2023-06-14T14:50:41;0.93;;;0.30;;
47335;SDS011;33068;51.990;5.926;2023-06-14T14:53:08;0.52;;;0.30;;
47335;SDS011;33068;51.990;5.926;2023-06-14T14:55:35;1.25;;;0.40;;
47335;SDS011;33068;51.990;5.926;2023-06-14T14:58:04;1.42;;;0.20;;